Time;durP1;ratioP1;P1;durP2;ratioP2;P2;SDS_P1;SDS_P2;PMS_P1;PMS_P2;Temp;Humidity;BMP_temperature;BMP_pressure;BME280_temperature;BME280_humidity;BME280_pressure;Samples;Min_cycle;Max_cycle;Signal;HPM_P1;HPM_P2
2021/11/12 00:12:23;;;;;;;47.08;30.65;;;9.20;99.90;;;;;;5010325;28;20469;-61
2021/11/12 00:14:50;;;;;;;51.08;30.88;;;9.20;99.90;;;;;;5005922;28;20498;-61
2021/11/12 00:17:18;;;;;;;50.72;31.23;;;9.10;99.90;;;;;;5003208;28;20026;-61
2021/11/12 00:19:45;;;;;;;47.60;29.83;;;9.10;99.90;;;;;;5012240;28;20026;-61
2021/11/12 00:22:12;;;;;;;47.88;29.70;;;9.10;99.90;;;;;;5011856;28;20422;-61
2021/11/12 00:24:38;;;;;;;52.30;30.95;;;9.10;99.90;;;;;;5011412;28;20018;-61
2021/11/12 00:27:05;;;;;;;53.08;30.13;;;9.10;99.90;;;;;;5011372;28;20041;-61
2021/11/12 00:29:36;;;;;;;50.83;31.40;;;9.10;99.90;;;;;;5011527;28;20052;-61
2021/11/12 00:32:11;;;;;;;;;;;;;;;;;;;;;
2021/11/12 00:34:58;;;;;;;54.35;32.00;;;9.00;99.90;;;;;;5011814;28;20034;-61
2021/11/12 00:39:46;;;;;;;51.33;31.52;;;8.90;99.90;;;;;;5009542;28;20034;-61
2021/11/12 00:42:23;;;;;;;52.60;31.73;;;8.90;99.90;;;;;;5011749;28;20030;-61
2021/11/12 00:44:58;;;;;;;46.78;30.38;;;8.80;99.90;;;;;;4993701;28;20026;-61
2021/11/12 00:47:39;;;;;;;46.35;30.10;;;8.80;99.90;;;;;;5009404;28;20024;-61
2021/11/12 00:55:34;;;;;;;49.33;33.17;;;8.70;99.90;;;;;;4980271;28;20045;-61
2021/11/12 00:58:00;;;;;;;48.67;31.13;;;8.70;99.90;;;;;;5009996;28;20026;-61
2021/11/12 01:00:26;;;;;;;52.00;30.45;;;8.60;99.90;;;;;;5010892;28;20076;-60
2021/11/12 01:02:53;;;;;;;55.67;33.83;;;8.60;99.90;;;;;;5011156;28;20034;-61
2021/11/12 01:05:19;;;;;;;51.72;32.60;;;8.60;99.90;;;;;;5010454;28;20037;-61
2021/11/12 01:07:46;;;;;;;54.00;34.20;;;8.50;99.90;;;;;;5006446;28;20037;-60
2021/11/12 01:10:14;;;;;;;53.75;32.53;;;8.50;99.90;;;;;;5008205;28;20097;-60
2021/11/12 01:12:42;;;;;;;48.15;32.08;;;8.40;99.90;;;;;;5007538;28;20030;-61
2021/11/12 01:15:12;;;;;;;56.83;36.33;;;8.40;99.90;;;;;;4991379;28;20057;-60
2021/11/12 01:17:38;;;;;;;53.30;33.70;;;8.30;99.90;;;;;;4992569;28;20029;-61
2021/11/12 01:20:05;;;;;;;46.45;30.33;;;8.30;99.90;;;;;;5004808;28;20026;-60
2021/11/12 01:22:33;;;;;;;46.10;29.50;;;8.30;99.90;;;;;;5008615;28;20030;-60
2021/11/12 01:24:59;;;;;;;41.80;26.55;;;8.30;99.90;;;;;;4978422;28;20105;-60
2021/11/12 01:27:25;;;;;;;40.72;26.20;;;8.30;99.90;;;;;;5003968;28;20117;-61
2021/11/12 01:29:51;;;;;;;40.60;24.83;;;8.30;99.90;;;;;;5010610;28;20211;-61
2021/11/12 01:32:19;;;;;;;30.52;21.02;;;8.40;99.90;;;;;;5010204;28;20037;-61
2021/11/12 01:34:50;;;;;;;33.85;22.58;;;8.40;99.90;;;;;;5010399;28;20104;-61
2021/11/12 01:37:19;;;;;;;34.97;21.27;;;8.40;99.90;;;;;;5010502;28;20025;-61
2021/11/12 01:39:50;;;;;;;36.10;22.80;;;8.40;99.90;;;;;;5004533;28;20026;-61
2021/11/12 01:42:17;;;;;;;39.60;25.23;;;8.40;99.90;;;;;;5007009;28;20033;-60
2021/11/12 01:44:47;;;;;;;33.55;21.67;;;8.40;99.90;;;;;;5010772;28;20050;-61
2021/11/12 01:47:25;;;;;;;32.05;20.42;;;8.40;99.90;;;;;;5010643;28;20029;-60
2021/11/12 01:49:53;;;;;;;29.42;18.23;;;8.40;99.90;;;;;;5009528;28;20018;-61
2021/11/12 01:57:38;;;;;;;26.83;19.38;;;8.50;99.90;;;;;;5009596;28;20041;-61
2021/11/12 02:00:10;;;;;;;29.38;18.35;;;8.40;99.90;;;;;;5009131;28;20474;-60
2021/11/12 02:02:35;;;;;;;42.25;26.10;;;8.40;99.90;;;;;;5009824;28;20040;-60
2021/11/12 02:05:01;;;;;;;47.92;27.48;;;8.30;99.90;;;;;;5010078;28;20117;-61
2021/11/12 02:07:27;;;;;;;45.92;27.17;;;8.20;99.90;;;;;;5010346;28;20030;-61
2021/11/12 02:09:53;;;;;;;52.85;30.05;;;8.20;99.90;;;;;;5010472;28;20064;-61
2021/11/12 02:12:32;;;;;;;51.50;30.83;;;8.20;99.90;;;;;;5010259;28;20034;-61
2021/11/12 02:14:58;;;;;;;49.13;30.60;;;8.10;99.90;;;;;;5009984;28;20398;-61
2021/11/12 02:17:28;;;;;;;46.88;27.20;;;8.00;99.90;;;;;;5010252;28;20079;-61
2021/11/12 02:20:01;;;;;;;45.60;29.25;;;8.00;99.90;;;;;;5010416;28;20038;-61
2021/11/12 02:22:31;;;;;;;43.47;28.00;;;7.90;99.90;;;;;;5010301;28;20437;-60
2021/11/12 02:25:10;;;;;;;45.72;28.05;;;7.90;99.90;;;;;;5009949;28;20053;-61
2021/11/12 02:28:00;;;;;;;51.30;29.52;;;7.90;99.90;;;;;;5010031;28;20034;-61
2021/11/12 02:30:24;;;;;;;53.38;30.55;;;7.90;99.90;;;;;;5009747;28;20054;-61
2021/11/12 02:33:11;;;;;;;52.58;30.52;;;7.80;99.90;;;;;;5010105;28;20109;-61
2021/11/12 02:35:40;;;;;;;51.00;29.42;;;7.80;99.90;;;;;;5009630;28;20030;-61
2021/11/12 02:38:07;;;;;;;52.33;31.02;;;7.70;99.90;;;;;;5010233;28;20112;-61
2021/11/12 02:40:34;;;;;;;54.70;31.85;;;7.70;99.90;;;;;;5009945;28;20097;-60
2021/11/12 02:43:02;;;;;;;52.38;31.00;;;7.60;99.90;;;;;;5009779;28;20036;-60
2021/11/12 02:45:29;;;;;;;55.55;30.80;;;7.60;99.90;;;;;;5002022;28;20023;-60
2021/11/12 02:47:55;;;;;;;56.72;32.42;;;7.50;99.90;;;;;;5009963;28;20517;-60
2021/11/12 02:50:20;;;;;;;56.55;32.03;;;7.50;99.90;;;;;;5009985;28;20030;-61
2021/11/12 02:52:51;;;;;;;46.13;28.27;;;7.50;99.90;;;;;;5013644;28;20029;-60
2021/11/12 02:55:17;;;;;;;49.10;30.10;;;7.50;99.90;;;;;;5013205;28;20029;-61
2021/11/12 02:57:43;;;;;;;50.22;30.55;;;7.50;99.90;;;;;;4995708;28;20026;-60
2021/11/12 03:00:11;;;;;;;56.25;33.58;;;7.50;99.90;;;;;;5005591;28;20021;-60
2021/11/12 03:02:37;;;;;;;56.42;34.28;;;7.40;99.90;;;;;;5012833;28;20026;-61
2021/11/12 03:05:03;;;;;;;51.88;31.23;;;7.40;99.90;;;;;;5013164;28;20089;-61
2021/11/12 03:07:29;;;;;;;61.85;34.50;;;7.30;99.90;;;;;;5013157;28;20512;-60
2021/11/12 03:09:55;;;;;;;62.25;34.58;;;7.30;99.90;;;;;;5013244;28;20023;-60
2021/11/12 03:12:21;;;;;;;54.35;34.05;;;7.30;99.90;;;;;;4993068;28;20026;-60
2021/11/12 03:14:48;;;;;;;58.20;34.45;;;7.20;99.90;;;;;;5013153;28;20022;-61
2021/11/12 03:17:14;;;;;;;64.70;35.42;;;7.20;99.90;;;;;;5013173;28;20054;-60
2021/11/12 03:19:40;;;;;;;55.00;33.67;;;7.10;99.90;;;;;;4994999;28;20033;-60
2021/11/12 03:22:10;;;;;;;58.00;33.40;;;7.00;99.90;;;;;;5012796;28;20033;-60
2021/11/12 03:24:47;;;;;;;59.28;34.58;;;7.00;99.90;;;;;;5013240;28;20245;-60
2021/11/12 03:56:30;;;;;;;62.75;35.38;;;6.50;99.90;;;;;;5010715;28;20037;-60
2021/11/12 03:59:54;;;;;;;59.58;37.17;;;6.40;99.90;;;;;;5012271;28;20026;-61
2021/11/12 04:21:52;;;;;;;71.15;40.20;;;6.10;99.90;;;;;;5011850;28;20120;-60
2021/11/12 05:11:11;;;;;;;58.65;36.40;;;5.10;99.90;;;;;;5010961;28;20659;-60
2021/11/12 05:13:47;;;;;;;55.80;34.20;;;5.10;99.90;;;;;;4995218;28;20548;-61
2021/11/12 05:44:15;;;;;;;46.88;30.77;;;4.50;99.90;;;;;;5003583;28;20493;-60
2021/11/12 05:46:46;;;;;;;50.65;32.25;;;4.40;99.90;;;;;;5000800;28;20040;-60
2021/11/12 05:52:12;;;;;;;54.08;33.28;;;4.30;99.90;;;;;;5009327;28;20453;-60
2021/11/12 05:57:23;;;;;;;48.70;29.92;;;4.20;99.90;;;;;;5010838;28;20092;-60
2021/11/12 05:59:48;;;;;;;52.17;31.98;;;4.20;99.90;;;;;;5010664;28;20030;-60
2021/11/12 06:02:14;;;;;;;55.00;31.13;;;4.10;99.90;;;;;;5010415;28;20088;-60
2021/11/12 06:04:39;;;;;;;50.47;32.08;;;4.10;99.90;;;;;;4992271;28;20050;-60
2021/11/12 06:07:36;;;;;;;53.33;31.20;;;4.00;99.90;;;;;;5010427;28;20026;-60
2021/11/12 06:10:04;;;;;;;53.13;30.75;;;4.00;99.90;;;;;;5010197;28;20026;-60
2021/11/12 06:12:32;;;;;;;49.53;31.83;;;4.00;99.90;;;;;;5002510;28;20030;-60
2021/11/12 06:14:58;;;;;;;48.90;30.70;;;4.00;99.90;;;;;;5010114;28;20034;-60
2021/11/12 06:17:43;;;;;;;;;;;;;;;;;;;;;
2021/11/12 06:20:10;;;;;;;51.35;31.48;;;3.90;99.90;;;;;;5009933;28;20030;-60
2021/11/12 06:22:37;;;;;;;46.58;31.23;;;3.90;99.90;;;;;;5009268;28;20437;-60
2021/11/12 06:25:03;;;;;;;49.40;30.80;;;3.80;99.90;;;;;;5010057;28;20026;-60
2021/11/12 06:27:35;;;;;;;52.35;31.23;;;3.70;99.90;;;;;;5013585;28;20486;-60
2021/11/12 06:30:01;;;;;;;52.35;32.13;;;3.80;99.90;;;;;;4995895;28;20045;-60
2021/11/12 06:32:27;;;;;;;52.65;31.00;;;3.70;99.90;;;;;;5013803;28;20470;-60
2021/11/12 06:34:52;;;;;;;52.72;31.15;;;3.70;99.90;;;;;;5015182;28;20036;-60
2021/11/12 06:37:47;;;;;;;49.08;30.92;;;3.60;99.90;;;;;;4997206;28;20481;-60
2021/11/12 06:40:19;;;;;;;49.05;31.00;;;3.60;99.90;;;;;;5012872;28;20066;-60
2021/11/12 06:50:59;;;;;;;46.88;29.45;;;3.50;99.90;;;;;;5015252;28;20041;-60
2021/11/12 06:53:25;;;;;;;49.35;30.90;;;3.40;99.90;;;;;;5014298;28;20034;-60
2021/11/12 06:55:53;;;;;;;55.70;33.22;;;3.40;99.90;;;;;;5014315;28;20021;-60
2021/11/12 06:58:18;;;;;;;47.97;30.17;;;3.40;99.90;;;;;;5015085;28;20125;-60
2021/11/12 07:00:46;;;;;;;52.50;31.00;;;3.30;99.90;;;;;;5015041;28;20522;-60
2021/11/12 07:03:11;;;;;;;50.50;30.63;;;3.30;99.90;;;;;;5014967;28;20022;-60
2021/11/12 07:05:37;;;;;;;54.42;33.78;;;3.30;99.90;;;;;;4997205;28;20406;-60
2021/11/12 07:08:03;;;;;;;54.47;33.78;;;3.30;99.90;;;;;;5014795;28;20030;-60
2021/11/12 07:10:28;;;;;;;52.72;32.20;;;3.30;99.90;;;;;;5014411;28;20030;-60
2021/11/12 07:12:54;;;;;;;51.42;32.10;;;3.20;99.90;;;;;;4994632;28;20293;-60
2021/11/12 07:15:20;;;;;;;52.08;31.52;;;3.20;99.90;;;;;;5014032;28;20030;-60
2021/11/12 07:17:48;;;;;;;56.65;33.30;;;3.20;99.90;;;;;;5014543;28;20433;-60
2021/11/12 07:20:37;;;;;;;56.90;33.75;;;3.20;99.90;;;;;;5011530;28;20021;-60
2021/11/12 07:23:03;;;;;;;61.80;35.00;;;3.10;99.90;;;;;;5012897;28;20072;-60
2021/11/12 07:25:31;;;;;;;57.35;34.15;;;3.10;99.90;;;;;;4996924;28;20030;-60
2021/11/12 07:27:57;;;;;;;64.43;35.75;;;3.10;99.90;;;;;;5014518;28;20032;-60
2021/11/12 07:30:23;;;;;;;60.55;35.63;;;3.00;99.90;;;;;;5014723;28;20025;-60
2021/11/12 07:32:50;;;;;;;64.10;37.63;;;3.00;99.90;;;;;;5014476;28;20025;-60
2021/11/12 07:35:21;;;;;;;65.22;37.60;;;3.00;99.90;;;;;;5014365;28;20117;-60
2021/11/12 07:38:08;;;;;;;;;;;;;;;;;;;;;
2021/11/12 07:44:13;;;;;;;;;;;3.00;99.90;;;;;;5014733;28;20488;-61
2021/11/12 07:46:45;;;;;;;63.97;35.60;;;2.90;99.90;;;;;;5005003;28;19936;-60
2021/11/12 07:49:13;;;;;;;64.22;36.67;;;2.90;99.90;;;;;;5010504;28;20026;-60
2021/11/12 07:51:40;;;;;;;68.10;38.03;;;3.00;99.90;;;;;;5011965;28;20037;-60
2021/11/12 07:54:07;;;;;;;65.97;38.08;;;3.00;99.90;;;;;;5011420;28;20030;-61
2021/11/12 07:56:33;;;;;;;68.20;38.92;;;3.00;99.90;;;;;;5011502;28;20482;-60
2021/11/12 07:58:59;;;;;;;64.85;38.58;;;3.00;99.90;;;;;;5011513;28;20034;-60
2021/11/12 08:01:25;;;;;;;69.95;37.80;;;3.00;99.90;;;;;;4992650;28;20037;-60
2021/11/12 08:03:54;;;;;;;70.28;40.28;;;3.10;99.90;;;;;;5011618;28;20029;-60
2021/11/12 08:06:20;;;;;;;67.15;38.35;;;3.10;99.90;;;;;;5012455;28;20440;-60
2021/11/12 08:08:54;;;;;;;62.45;35.55;;;3.10;99.90;;;;;;5011550;28;20021;-60
2021/11/12 08:11:25;;;;;;;66.65;37.22;;;3.10;99.90;;;;;;5012085;28;20022;-60
2021/11/12 08:14:06;;;;;;;67.25;37.92;;;3.20;99.90;;;;;;5009257;28;20029;-60
2021/11/12 08:16:45;;;;;;;64.13;37.83;;;3.20;99.90;;;;;;4991742;28;20113;-60
2021/11/12 08:22:24;;;;;;;71.72;38.88;;;3.30;99.90;;;;;;4988680;28;20042;-60
2021/11/12 08:24:55;;;;;;;65.90;38.58;;;3.40;99.90;;;;;;5011606;28;20117;-60
2021/11/12 08:30:19;;;;;;;63.65;38.35;;;3.50;99.90;;;;;;5005866;28;20124;-60
2021/11/12 08:38:08;;;;;;;68.00;38.25;;;3.70;99.90;;;;;;5007655;28;20018;-60
2021/11/12 08:51:23;;;;;;;60.65;37.00;;;4.00;99.90;;;;;;5013339;28;20037;-60
2021/11/12 08:53:51;;;;;;;63.45;37.50;;;4.00;99.90;;;;;;5012787;28;20030;-60
2021/11/12 08:56:39;;;;;;;66.57;38.92;;;4.10;99.90;;;;;;5012537;28;20034;-60
2021/11/12 08:59:12;;;;;;;55.85;34.33;;;4.20;99.90;;;;;;5007504;28;20069;-60
2021/11/12 09:01:38;;;;;;;69.43;39.13;;;4.20;99.90;;;;;;4995325;28;20037;-60
2021/11/12 09:04:04;;;;;;;61.85;37.40;;;4.30;99.90;;;;;;5012518;28;20022;-60
2021/11/12 09:06:41;;;;;;;60.38;34.50;;;4.30;99.90;;;;;;5011464;28;20547;-60
2021/11/12 09:09:07;;;;;;;64.43;36.30;;;4.40;99.90;;;;;;5013112;28;20044;-60
2021/11/12 09:11:33;;;;;;;67.40;35.45;;;4.40;99.90;;;;;;5010601;28;20552;-60
2021/11/12 09:14:04;;;;;;;61.20;34.70;;;4.40;99.90;;;;;;4994839;28;20034;-60
2021/11/12 09:16:35;;;;;;;49.88;32.17;;;4.50;99.90;;;;;;5010591;28;20045;-60
2021/11/12 09:19:03;;;;;;;53.88;32.53;;;4.60;99.90;;;;;;5007456;28;20042;-60
2021/11/12 09:21:29;;;;;;;56.22;33.53;;;4.60;99.90;;;;;;5012556;28;20061;-60
2021/11/12 09:23:56;;;;;;;60.78;33.05;;;4.60;99.90;;;;;;5011907;28;20491;-60
2021/11/12 09:26:37;;;;;;;54.45;32.08;;;4.70;99.90;;;;;;4994542;28;20021;-63
2021/11/12 09:29:05;;;;;;;49.22;31.73;;;4.80;99.90;;;;;;4994140;28;20026;-60
2021/11/12 09:31:31;;;;;;;49.72;30.50;;;4.90;99.90;;;;;;5012431;28;20112;-60
2021/11/12 09:33:57;;;;;;;54.30;32.10;;;5.00;99.90;;;;;;5012273;28;20556;-60
2021/11/12 09:36:24;;;;;;;54.65;31.77;;;5.00;99.90;;;;;;4994563;28;20030;-60
2021/11/12 09:38:50;;;;;;;49.03;29.35;;;5.10;99.90;;;;;;5012180;28;20026;-60
2021/11/12 09:41:16;;;;;;;47.22;30.00;;;5.20;99.90;;;;;;5012377;28;20045;-60
2021/11/12 09:43:41;;;;;;;44.83;28.95;;;5.20;99.90;;;;;;4985966;28;20026;-60
2021/11/12 09:46:10;;;;;;;44.25;28.55;;;5.40;99.90;;;;;;5007274;28;20053;-60
2021/11/12 09:48:35;;;;;;;43.85;27.30;;;5.60;99.90;;;;;;5012160;28;20059;-60
2021/11/12 09:51:02;;;;;;;43.53;28.75;;;5.80;99.90;;;;;;5012226;28;20504;-60
2021/11/12 09:53:27;;;;;;;41.70;27.83;;;6.00;99.90;;;;;;5012141;28;20416;-60
2021/11/12 09:55:54;;;;;;;43.40;27.73;;;6.20;99.90;;;;;;5012015;28;20041;-60
2021/11/12 09:58:20;;;;;;;45.47;28.73;;;6.40;99.50;;;;;;5004961;28;20109;-60
2021/11/12 10:00:53;;;;;;;46.15;28.42;;;6.60;99.00;;;;;;5013877;28;20033;-60
2021/11/12 10:03:19;;;;;;;44.92;26.50;;;6.60;98.70;;;;;;4995139;28;20042;-60
2021/11/12 10:05:47;;;;;;;44.20;29.00;;;6.70;98.70;;;;;;5014573;28;20093;-60
2021/11/12 10:08:32;;;;;;;39.42;26.42;;;7.00;97.90;;;;;;5016090;28;20085;-60
2021/11/12 10:11:07;;;;;;;41.78;27.38;;;7.10;97.50;;;;;;5015993;28;20018;-60
2021/11/12 10:13:36;;;;;;;45.60;28.77;;;7.20;97.60;;;;;;5014063;28;20437;-60
2021/11/12 10:19:15;;;;;;;38.70;26.17;;;7.50;96.60;;;;;;5014097;28;20477;-60
2021/11/12 10:22:03;;;;;;;39.42;24.88;;;7.90;96.30;;;;;;5015177;28;20042;-60
2021/11/12 10:24:32;;;;;;;35.55;24.15;;;8.40;95.40;;;;;;4998003;28;20025;-60
2021/11/12 10:27:01;;;;;;;42.10;26.88;;;8.60;94.50;;;;;;5014312;28;20549;-60
2021/11/12 10:29:28;;;;;;;37.15;25.30;;;8.90;93.90;;;;;;5015373;28;20038;-60
2021/11/12 10:32:00;;;;;;;35.38;25.48;;;9.00;92.50;;;;;;5013787;28;20046;-60
2021/11/12 10:34:37;;;;;;;39.75;24.48;;;9.00;92.50;;;;;;5013598;28;20040;-60
2021/11/12 10:37:26;;;;;;;38.88;25.63;;;9.20;92.90;;;;;;5013634;28;20026;-61
2021/11/12 10:40:34;;;;;;;;;;;;;;;;;;;;;
2021/11/12 10:42:58;;;;;;;31.65;22.77;;;10.10;90.50;;;;;;4996076;28;20401;-60
2021/11/12 10:45:26;;;;;;;37.47;24.13;;;10.30;90.00;;;;;;4994229;28;20026;-61
2021/11/12 10:47:57;;;;;;;35.40;23.75;;;10.70;88.20;;;;;;5012726;28;20471;-61
2021/11/12 10:50:26;;;;;;;35.92;24.52;;;11.40;86.70;;;;;;5012621;28;20478;-61
2021/11/12 10:53:18;;;;;;;38.92;24.85;;;11.50;83.20;;;;;;5011443;28;20040;-61
2021/11/12 10:55:58;;;;;;;37.88;24.08;;;11.40;82.70;;;;;;5014180;28;20049;-61
2021/11/12 10:58:24;;;;;;;30.50;22.88;;;11.30;83.10;;;;;;5002924;28;20105;-61
2021/11/12 11:00:50;;;;;;;32.88;23.35;;;11.40;82.80;;;;;;4988040;28;20033;-61
2021/11/12 11:03:21;;;;;;;33.67;23.77;;;11.70;81.70;;;;;;5014971;28;20025;-61
2021/11/12 11:05:58;;;;;;;34.78;24.05;;;11.90;80.20;;;;;;5014866;28;20046;-61
2021/11/12 11:08:25;;;;;;;31.80;21.17;;;12.10;79.90;;;;;;5014992;28;20025;-61
2021/11/12 11:11:00;;;;;;;27.38;21.05;;;12.80;79.50;;;;;;5014833;28;20033;-62
2021/11/12 11:13:29;;;;;;;31.73;21.63;;;13.90;76.70;;;;;;5014374;28;20045;-62
2021/11/12 11:16:01;;;;;;;27.17;20.13;;;14.40;70.70;;;;;;5012121;28;20025;-61
2021/11/12 11:18:54;;;;;;;27.70;20.77;;;14.80;70.20;;;;;;4973428;28;20085;-62
2021/11/12 11:24:12;;;;;;;27.65;20.67;;;16.20;64.30;;;;;;5003870;28;20535;-61
2021/11/12 11:26:46;;;;;;;27.80;20.15;;;16.40;63.40;;;;;;5007243;28;20042;-61
2021/11/12 11:29:15;;;;;;;26.65;20.95;;;16.60;61.00;;;;;;5010706;28;20022;-62
2021/11/12 11:31:41;;;;;;;30.33;21.97;;;16.70;59.90;;;;;;5012364;28;20034;-61
2021/11/12 11:34:07;;;;;;;22.52;18.67;;;16.70;58.90;;;;;;5012363;28;20030;-61
2021/11/12 11:36:36;;;;;;;26.38;21.77;;;16.60;58.50;;;;;;5013988;28;20056;-62
2021/11/12 11:39:05;;;;;;;26.35;19.20;;;16.80;58.10;;;;;;5014362;28;20041;-61
2021/11/12 11:41:31;;;;;;;28.25;21.65;;;16.90;58.30;;;;;;5014050;28;20045;-61
2021/11/12 11:43:57;;;;;;;23.73;19.00;;;16.90;57.00;;;;;;5014068;28;20477;-62
2021/11/12 11:46:31;;;;;;;28.83;20.00;;;16.80;58.10;;;;;;5013934;28;20056;-61
2021/11/12 11:48:59;;;;;;;26.17;20.33;;;16.90;56.90;;;;;;5012422;28;20025;-61
2021/11/12 11:54:14;;;;;;;28.17;21.98;;;15.70;59.50;;;;;;4990184;28;20038;-61
2021/11/12 11:57:15;;;;;;;;;;;;;;;;;;;;;
2021/11/12 11:59:41;;;;;;;27.88;21.27;;;15.20;60.80;;;;;;5011424;28;20040;-61
2021/11/12 12:02:14;;;;;;;27.65;22.15;;;14.80;62.20;;;;;;5012263;28;20041;-61
2021/11/12 12:04:45;;;;;;;26.50;20.90;;;14.40;62.70;;;;;;5011612;28;20442;-61
2021/11/12 12:10:29;;;;;;;29.58;22.25;;;14.30;65.30;;;;;;4969594;28;20030;-61
2021/11/12 12:12:57;;;;;;;25.60;20.23;;;13.90;65.30;;;;;;5002648;28;20095;-61
2021/11/12 12:15:23;;;;;;;27.58;20.08;;;13.80;65.30;;;;;;4993499;28;20548;-61
2021/11/12 12:18:15;;;;;;;29.90;21.88;;;13.50;66.10;;;;;;5013446;28;20037;-61
2021/11/12 12:21:32;;;;;;;28.92;20.20;;;13.20;67.50;;;;;;4984453;28;20046;-61
2021/11/12 12:36:23;;;;;;;31.58;21.95;;;11.70;75.00;;;;;;5008116;28;20064;-61
2021/11/12 13:23:34;;;;;;;40.83;26.52;;;9.40;87.40;;;;;;5012523;28;20034;-61
2021/11/12 13:26:38;;;;;;;38.65;26.98;;;9.70;87.40;;;;;;4989496;28;20394;-61
2021/11/12 13:29:06;;;;;;;37.75;26.70;;;9.80;86.80;;;;;;4992454;28;20092;-61
2021/11/12 13:31:31;;;;;;;40.88;27.77;;;9.90;86.20;;;;;;5012211;28;20036;-61
2021/11/12 13:34:00;;;;;;;37.13;25.90;;;9.80;86.40;;;;;;5012408;28;20117;-61
2021/11/12 13:36:28;;;;;;;43.63;26.97;;;9.70;87.00;;;;;;4994790;28;20076;-61
2021/11/12 13:38:59;;;;;;;38.80;26.95;;;9.50;87.60;;;;;;5012163;28;20440;-61
2021/11/12 13:41:36;;;;;;;42.08;29.00;;;9.50;88.80;;;;;;5012185;28;20026;-61
2021/11/12 13:44:07;;;;;;;42.88;29.00;;;9.30;89.40;;;;;;5012392;28;20037;-60
2021/11/12 13:46:48;;;;;;;40.22;29.02;;;9.20;90.00;;;;;;5012317;28;20026;-61
2021/11/12 13:49:26;;;;;;;39.55;27.95;;;9.10;90.30;;;;;;5012062;28;20108;-61
2021/11/12 13:52:23;;;;;;;40.22;27.90;;;9.00;90.80;;;;;;5012143;28;20026;-61
2021/11/12 13:58:30;;;;;;;43.63;29.52;;;8.90;91.30;;;;;;4951323;29;20093;-61
2021/11/12 14:01:43;;;;;;;;;;;;;;;;;;;;;
2021/11/12 14:04:54;;;;;;;47.42;29.88;;;8.80;91.90;;;;;;5009275;28;20021;-60
2021/11/12 14:07:22;;;;;;;46.17;30.38;;;8.80;92.30;;;;;;4932415;29;20036;-61
2021/11/12 14:13:05;;;;;;;44.88;31.27;;;8.70;92.60;;;;;;4990084;28;20122;-61
2021/11/12 14:15:35;;;;;;;46.97;30.02;;;8.70;92.80;;;;;;4992381;28;20058;-61
2021/11/12 14:18:34;;;;;;;43.83;30.50;;;8.60;93.00;;;;;;4992183;28;20109;-61
2021/11/12 14:29:17;;;;;;;40.88;28.58;;;8.50;93.90;;;;;;4992670;28;20495;-60
2021/11/12 14:32:14;;;;;;;41.53;29.05;;;8.50;94.10;;;;;;4992139;28;20538;-60
2021/11/12 14:45:43;;;;;;;45.95;29.75;;;8.40;95.00;;;;;;4992247;28;20026;-60
2021/11/12 14:48:37;;;;;;;44.53;29.98;;;8.40;95.20;;;;;;4993201;28;20049;-61
2021/11/12 14:51:20;;;;;;;42.30;30.50;;;8.50;95.40;;;;;;4995620;28;20027;-61
2021/11/12 15:02:51;;;;;;;40.42;29.13;;;8.40;95.80;;;;;;4992304;28;20398;-60
2021/11/12 15:05:17;;;;;;;40.63;30.55;;;8.40;96.10;;;;;;4995748;28;20030;-61
2021/11/12 15:08:01;;;;;;;40.38;28.50;;;8.40;96.20;;;;;;4993012;28;20030;-60
2021/11/12 15:10:29;;;;;;;41.38;28.48;;;8.40;96.30;;;;;;4977848;28;20390;-61
2021/11/12 15:12:55;;;;;;;42.08;28.70;;;8.30;96.40;;;;;;4995201;28;20033;-61
2021/11/12 15:15:56;;;;;;;38.13;28.77;;;8.40;96.50;;;;;;4995059;28;20031;-60
2021/11/12 15:18:20;;;;;;;37.78;27.40;;;8.40;96.60;;;;;;4994416;28;20121;-61
2021/11/12 15:20:46;;;;;;;41.03;27.98;;;8.30;96.70;;;;;;4995082;28;20117;-61
2021/11/12 15:39:10;;;;;;;42.67;28.05;;;8.20;97.40;;;;;;4811215;29;20043;-61
2021/11/12 15:48:13;;;;;;;41.88;27.92;;;8.10;97.90;;;;;;4992989;28;20025;-61
2021/11/12 16:01:25;;;;;;;42.50;26.20;;;8.00;98.30;;;;;;4994405;28;20054;-60
2021/11/12 16:13:11;;;;;;;;;;;;;;;;;;;;;
2021/11/12 16:18:53;;;;;;;44.38;26.52;;;7.90;98.60;;;;;;5009218;28;20043;-60
2021/11/12 16:26:44;;;;;;;41.45;28.30;;;7.90;98.90;;;;;;5012657;28;20436;-60
2021/11/12 16:29:23;;;;;;;41.47;26.50;;;7.80;99.00;;;;;;4995961;28;20029;-60
2021/11/12 16:31:49;;;;;;;42.33;27.65;;;7.80;99.10;;;;;;4995759;28;20038;-60
2021/11/12 16:34:18;;;;;;;39.63;27.35;;;7.80;99.10;;;;;;5013260;28;20033;-60
2021/11/12 16:37:02;;;;;;;40.85;27.20;;;7.80;99.20;;;;;;5013160;28;20079;-60
2021/11/12 16:39:40;;;;;;;38.70;26.38;;;7.80;99.20;;;;;;5012292;28;20033;-60
2021/11/12 16:45:44;;;;;;;42.28;25.58;;;7.80;99.40;;;;;;5012620;28;20084;-61
2021/11/12 16:54:28;;;;;;;40.08;25.75;;;7.80;99.50;;;;;;4968296;28;20121;-60
2021/11/12 16:59:27;;;;;;;38.47;25.45;;;7.80;99.50;;;;;;5013173;28;20025;-60
2021/11/12 17:46:42;;;;;;;37.42;23.73;;;7.90;99.80;;;;;;4976303;28;20041;-60
2021/11/12 17:51:47;;;;;;;32.65;23.00;;;8.00;99.90;;;;;;4993129;28;20039;-60
2021/11/12 18:05:27;;;;;;;32.33;22.15;;;8.10;99.60;;;;;;4992399;28;20026;-60
2021/11/12 18:13:41;;;;;;;36.20;22.55;;;8.20;99.50;;;;;;4977950;28;20050;-60
2021/11/12 18:19:55;;;;;;;33.83;21.30;;;8.30;99.20;;;;;;4992318;28;20026;-60
2021/11/12 21:47:27;;;;;;;23.80;17.10;;;9.40;99.90;;;;;;4990733;28;20021;-60
2021/11/12 21:49:53;;;;;;;28.17;17.48;;;9.30;99.90;;;;;;4972622;28;20019;-60
2021/11/12 21:52:19;;;;;;;21.88;15.95;;;9.40;99.90;;;;;;4966353;28;20038;-60
2021/11/12 21:54:44;;;;;;;23.70;16.50;;;9.40;99.90;;;;;;4973127;28;20422;-60
2021/11/12 21:57:10;;;;;;;23.25;15.70;;;9.40;99.90;;;;;;4993758;28;20026;-60
2021/11/12 21:59:35;;;;;;;24.80;16.27;;;9.30;99.90;;;;;;4977532;28;20046;-60
2021/11/12 22:02:39;;;;;;;27.90;16.73;;;9.40;99.90;;;;;;4977744;28;20033;-60
2021/11/12 22:05:06;;;;;;;23.15;16.33;;;9.40;99.90;;;;;;4976540;28;20383;-60
2021/11/12 22:07:32;;;;;;;23.23;15.30;;;9.30;99.90;;;;;;5007970;28;20038;-60
2021/11/12 22:09:57;;;;;;;24.60;16.10;;;9.40;99.90;;;;;;5008349;28;20018;-60
2021/11/12 22:12:23;;;;;;;24.23;16.38;;;9.40;99.90;;;;;;5013901;28;20061;-60
2021/11/12 22:14:49;;;;;;;21.15;15.50;;;9.40;99.90;;;;;;5013609;28;20034;-60
2021/11/12 22:17:14;;;;;;;32.72;16.95;;;9.40;99.90;;;;;;5013863;28;20394;-60
2021/11/12 22:19:40;;;;;;;24.85;16.88;;;9.40;99.90;;;;;;4996310;28;20485;-60
2021/11/12 22:22:05;;;;;;;24.90;15.98;;;9.40;99.90;;;;;;5013756;28;20038;-60
2021/11/12 22:24:31;;;;;;;25.35;17.10;;;9.40;99.90;;;;;;5013874;28;20076;-60
2021/11/12 22:26:56;;;;;;;24.15;17.30;;;9.40;99.90;;;;;;5013777;28;20053;-60
2021/11/12 22:29:23;;;;;;;26.27;17.70;;;9.40;99.90;;;;;;5013622;28;20026;-60
2021/11/12 22:31:49;;;;;;;24.00;16.70;;;9.40;99.90;;;;;;5013613;28;20075;-60
2021/11/12 22:34:15;;;;;;;26.08;17.30;;;9.40;99.90;;;;;;5013640;28;20490;-60
2021/11/12 22:36:44;;;;;;;28.92;18.13;;;9.40;99.90;;;;;;5013596;28;20034;-60
2021/11/12 22:39:31;;;;;;;27.07;17.90;;;9.40;99.90;;;;;;4994434;28;20045;-61
2021/11/12 22:41:57;;;;;;;22.10;16.67;;;9.40;99.90;;;;;;5013623;28;20063;-60
2021/11/12 22:44:22;;;;;;;24.33;16.10;;;9.40;99.90;;;;;;5013277;28;20029;-60
2021/11/12 22:46:48;;;;;;;24.95;17.48;;;9.50;99.90;;;;;;5013068;28;20335;-60
2021/11/12 22:49:14;;;;;;;27.42;17.20;;;9.40;99.90;;;;;;4995929;28;20363;-60
2021/11/12 22:51:41;;;;;;;24.05;18.05;;;9.50;99.90;;;;;;5013593;28;20033;-60
2021/11/12 22:54:07;;;;;;;30.23;19.85;;;9.50;99.90;;;;;;5013559;28;20056;-60
2021/11/12 22:56:34;;;;;;;25.08;18.42;;;9.40;99.90;;;;;;5013602;28;20034;-60
2021/11/12 22:59:00;;;;;;;28.23;18.48;;;9.40;99.90;;;;;;5013598;28;20030;-60
2021/11/12 23:01:31;;;;;;;26.55;18.85;;;9.40;99.90;;;;;;5013174;28;20065;-60
2021/11/12 23:03:58;;;;;;;29.08;19.85;;;9.40;99.90;;;;;;5001985;28;20030;-60
2021/11/12 23:06:24;;;;;;;31.10;18.73;;;9.30;99.90;;;;;;5013526;28;20049;-60
2021/11/12 23:08:50;;;;;;;27.92;18.73;;;9.20;99.90;;;;;;5012023;28;20390;-60
2021/11/12 23:11:17;;;;;;;27.77;19.83;;;9.20;99.90;;;;;;5013275;28;20022;-60
2021/11/12 23:13:44;;;;;;;31.35;20.80;;;9.20;99.90;;;;;;5012838;28;20578;-60
2021/11/12 23:16:10;;;;;;;28.38;19.35;;;9.10;99.90;;;;;;5006744;28;20022;-60
2021/11/12 23:18:37;;;;;;;33.38;22.58;;;9.10;99.90;;;;;;5012441;28;20029;-60
2021/11/12 23:21:04;;;;;;;28.08;20.60;;;9.00;99.90;;;;;;5012980;28;20022;-60
2021/11/12 23:23:30;;;;;;;32.03;21.92;;;9.00;99.90;;;;;;5013429;28;20034;-60
2021/11/12 23:25:56;;;;;;;35.30;20.67;;;8.90;99.90;;;;;;5013294;28;20435;-61
2021/11/12 23:28:22;;;;;;;32.55;23.30;;;8.90;99.90;;;;;;5010473;28;20486;-60
2021/11/12 23:30:48;;;;;;;30.90;21.15;;;9.00;99.90;;;;;;4986595;28;20053;-61